sensor_id;sensor_type;location;lat;lon;timestamp;P1;durP1;ratioP1;P2;durP2;ratioP2
41721;SDS011;27407;24.142;-110.310;2023-03-04T00:00:27;13.15;;;1.50;;
41721;SDS011;27407;24.142;-110.310;2023-03-04T00:02:53;15.13;;;1.45;;
41721;SDS011;27407;24.142;-110.310;2023-03-04T00:05:20;3.92;;;0.90;;
41721;SDS011;27407;24.142;-110.310;2023-03-04T00:07:49;16.10;;;1.23;;
41721;SDS011;27407;24.142;-110.310;2023-03-04T00:10:23;17.85;;;1.48;;
41721;SDS011;27407;24.142;-110.310;2023-03-04T00:12:49;10.57;;;1.13;;
41721;SDS011;27407;24.142;-110.310;2023-03-04T00:15:16;8.00;;;1.27;;
41721;SDS011;27407;24.142;-110.310;2023-03-04T00:17:42;19.23;;;1.50;;
41721;SDS011;27407;24.142;-110.310;2023-03-04T00:20:10;9.03;;;1.30;;
41721;SDS011;27407;24.142;-110.310;2023-03-04T00:22:38;21.33;;;1.93;;
41721;SDS011;27407;24.142;-110.310;2023-03-04T00:25:04;14.35;;;1.40;;
41721;SDS011;27407;24.142;-110.310;2023-03-04T00:27:31;8.03;;;1.50;;
41721;SDS011;27407;24.142;-110.310;2023-03-04T00:29:58;19.87;;;1.57;;
41721;SDS011;27407;24.142;-110.310;2023-03-04T00:32:25;12.73;;;1.60;;
41721;SDS011;27407;24.142;-110.310;2023-03-04T00:34:51;9.47;;;1.13;;
41721;SDS011;27407;24.142;-110.310;2023-03-04T00:37:18;17.27;;;2.43;;
41721;SDS011;27407;24.142;-110.310;2023-03-04T00:39:45;9.67;;;1.33;;
41721;SDS011;27407;24.142;-110.310;2023-03-04T00:42:11;11.07;;;1.27;;
41721;SDS011;27407;24.142;-110.310;2023-03-04T00:44:38;8.13;;;1.17;;
41721;SDS011;27407;24.142;-110.310;2023-03-04T00:47:05;8.03;;;1.40;;
41721;SDS011;27407;24.142;-110.310;2023-03-04T00:49:31;20.17;;;3.00;;
41721;SDS011;27407;24.142;-110.310;2023-03-04T00:51:58;13.57;;;1.83;;
41721;SDS011;27407;24.142;-110.310;2023-03-04T00:54:25;17.53;;;1.80;;
41721;SDS011;27407;24.142;-110.310;2023-03-04T00:56:51;18.17;;;1.60;;
41721;SDS011;27407;24.142;-110.310;2023-03-04T00:59:18;12.53;;;1.50;;
41721;SDS011;27407;24.142;-110.310;2023-03-04T01:01:47;17.43;;;2.07;;
41721;SDS011;27407;24.142;-110.310;2023-03-04T01:04:14;21.70;;;1.97;;
41721;SDS011;27407;24.142;-110.310;2023-03-04T01:06:44;10.27;;;1.60;;
41721;SDS011;27407;24.142;-110.310;2023-03-04T01:09:10;21.70;;;1.97;;
41721;SDS011;27407;24.142;-110.310;2023-03-04T01:11:37;23.67;;;2.37;;
41721;SDS011;27407;24.142;-110.310;2023-03-04T01:14:04;16.07;;;1.90;;
41721;SDS011;27407;24.142;-110.310;2023-03-04T01:16:30;30.23;;;2.40;;
41721;SDS011;27407;24.142;-110.310;2023-03-04T01:18:57;12.47;;;1.93;;
41721;SDS011;27407;24.142;-110.310;2023-03-04T01:21:24;14.83;;;2.30;;
41721;SDS011;27407;24.142;-110.310;2023-03-04T01:23:50;39.83;;;5.37;;
41721;SDS011;27407;24.142;-110.310;2023-03-04T01:26:17;26.60;;;2.20;;
41721;SDS011;27407;24.142;-110.310;2023-03-04T01:28:44;9.90;;;1.67;;
41721;SDS011;27407;24.142;-110.310;2023-03-04T01:31:10;10.90;;;1.97;;
41721;SDS011;27407;24.142;-110.310;2023-03-04T01:33:37;21.17;;;2.60;;
41721;SDS011;27407;24.142;-110.310;2023-03-04T01:36:04;22.10;;;2.03;;
41721;SDS011;27407;24.142;-110.310;2023-03-04T01:38:31;29.17;;;2.30;;
41721;SDS011;27407;24.142;-110.310;2023-03-04T01:40:57;18.70;;;2.60;;
41721;SDS011;27407;24.142;-110.310;2023-03-04T01:43:26;19.70;;;2.20;;
41721;SDS011;27407;24.142;-110.310;2023-03-04T01:45:54;20.73;;;2.80;;
41721;SDS011;27407;24.142;-110.310;2023-03-04T01:48:32;30.00;;;2.80;;
41721;SDS011;27407;24.142;-110.310;2023-03-04T01:51:05;26.57;;;2.80;;
41721;SDS011;27407;24.142;-110.310;2023-03-04T01:53:36;24.80;;;2.70;;
41721;SDS011;27407;24.142;-110.310;2023-03-04T01:56:14;17.17;;;2.07;;
41721;SDS011;27407;24.142;-110.310;2023-03-04T01:58:41;18.97;;;2.33;;
41721;SDS011;27407;24.142;-110.310;2023-03-04T02:01:10;21.83;;;2.90;;
41721;SDS011;27407;24.142;-110.310;2023-03-04T02:03:37;30.93;;;2.53;;
41721;SDS011;27407;24.142;-110.310;2023-03-04T02:06:04;23.10;;;2.70;;
41721;SDS011;27407;24.142;-110.310;2023-03-04T02:08:31;28.07;;;2.67;;
41721;SDS011;27407;24.142;-110.310;2023-03-04T02:10:59;20.70;;;2.17;;
41721;SDS011;27407;24.142;-110.310;2023-03-04T02:13:25;17.07;;;2.87;;
41721;SDS011;27407;24.142;-110.310;2023-03-04T02:15:52;23.73;;;2.60;;
41721;SDS011;27407;24.142;-110.310;2023-03-04T02:18:20;34.30;;;2.33;;
41721;SDS011;27407;24.142;-110.310;2023-03-04T02:23:48;30.43;;;2.87;;
41721;SDS011;27407;24.142;-110.310;2023-03-04T02:26:49;25.97;;;2.23;;
41721;SDS011;27407;24.142;-110.310;2023-03-04T02:29:16;17.27;;;1.67;;
41721;SDS011;27407;24.142;-110.310;2023-03-04T02:31:47;52.93;;;3.93;;
41721;SDS011;27407;24.142;-110.310;2023-03-04T02:34:16;44.67;;;3.97;;
41721;SDS011;27407;24.142;-110.310;2023-03-04T02:36:46;25.03;;;2.53;;
41721;SDS011;27407;24.142;-110.310;2023-03-04T02:41:53;28.87;;;3.27;;
41721;SDS011;27407;24.142;-110.310;2023-03-04T02:44:28;25.20;;;2.97;;
41721;SDS011;27407;24.142;-110.310;2023-03-04T02:46:56;58.43;;;5.37;;
41721;SDS011;27407;24.142;-110.310;2023-03-04T02:49:24;104.50;;;8.33;;
41721;SDS011;27407;24.142;-110.310;2023-03-04T02:52:03;109.60;;;7.27;;
41721;SDS011;27407;24.142;-110.310;2023-03-04T02:54:32;72.37;;;5.73;;
41721;SDS011;27407;24.142;-110.310;2023-03-04T02:57:01;106.83;;;6.70;;
41721;SDS011;27407;24.142;-110.310;2023-03-04T02:59:29;92.23;;;7.10;;
41721;SDS011;27407;24.142;-110.310;2023-03-04T03:01:55;103.50;;;8.00;;
41721;SDS011;27407;24.142;-110.310;2023-03-04T03:04:22;46.27;;;4.97;;
41721;SDS011;27407;24.142;-110.310;2023-03-04T03:06:50;51.90;;;4.80;;
41721;SDS011;27407;24.142;-110.310;2023-03-04T03:09:17;29.83;;;4.13;;
41721;SDS011;27407;24.142;-110.310;2023-03-04T03:11:43;45.63;;;3.70;;
41721;SDS011;27407;24.142;-110.310;2023-03-04T03:14:10;28.60;;;3.17;;
41721;SDS011;27407;24.142;-110.310;2023-03-04T03:16:37;125.07;;;11.90;;
41721;SDS011;27407;24.142;-110.310;2023-03-04T03:19:03;78.17;;;6.13;;
41721;SDS011;27407;24.142;-110.310;2023-03-04T03:21:30;28.93;;;3.80;;
41721;SDS011;27407;24.142;-110.310;2023-03-04T03:23:57;39.37;;;3.57;;
41721;SDS011;27407;24.142;-110.310;2023-03-04T03:26:24;42.67;;;3.83;;
41721;SDS011;27407;24.142;-110.310;2023-03-04T03:28:51;49.90;;;3.63;;
41721;SDS011;27407;24.142;-110.310;2023-03-04T03:31:17;14.33;;;2.30;;
41721;SDS011;27407;24.142;-110.310;2023-03-04T03:33:44;27.23;;;3.30;;
41721;SDS011;27407;24.142;-110.310;2023-03-04T03:36:11;27.03;;;2.17;;
41721;SDS011;27407;24.142;-110.310;2023-03-04T03:38:38;17.67;;;2.13;;
41721;SDS011;27407;24.142;-110.310;2023-03-04T03:41:04;31.20;;;2.87;;
41721;SDS011;27407;24.142;-110.310;2023-03-04T03:43:31;27.17;;;2.40;;
41721;SDS011;27407;24.142;-110.310;2023-03-04T03:45:58;34.10;;;4.10;;
41721;SDS011;27407;24.142;-110.310;2023-03-04T03:48:25;21.53;;;2.77;;
41721;SDS011;27407;24.142;-110.310;2023-03-04T03:50:51;19.00;;;2.00;;
41721;SDS011;27407;24.142;-110.310;2023-03-04T03:53:18;23.93;;;2.90;;
41721;SDS011;27407;24.142;-110.310;2023-03-04T03:55:45;18.87;;;2.20;;
41721;SDS011;27407;24.142;-110.310;2023-03-04T03:58:12;22.03;;;2.47;;
41721;SDS011;27407;24.142;-110.310;2023-03-04T04:00:38;35.43;;;4.43;;
41721;SDS011;27407;24.142;-110.310;2023-03-04T04:03:15;24.00;;;2.40;;
41721;SDS011;27407;24.142;-110.310;2023-03-04T04:05:43;21.93;;;2.07;;
41721;SDS011;27407;24.142;-110.310;2023-03-04T04:08:16;25.77;;;3.20;;
41721;SDS011;27407;24.142;-110.310;2023-03-04T04:10:43;16.00;;;1.80;;
41721;SDS011;27407;24.142;-110.310;2023-03-04T04:13:10;27.63;;;2.60;;
41721;SDS011;27407;24.142;-110.310;2023-03-04T04:15:37;21.27;;;2.70;;
41721;SDS011;27407;24.142;-110.310;2023-03-04T04:18:07;24.90;;;2.30;;
41721;SDS011;27407;24.142;-110.310;2023-03-04T04:20:34;20.30;;;2.40;;
41721;SDS011;27407;24.142;-110.310;2023-03-04T04:23:01;32.80;;;2.40;;
41721;SDS011;27407;24.142;-110.310;2023-03-04T04:25:28;24.00;;;2.00;;
41721;SDS011;27407;24.142;-110.310;2023-03-04T04:27:55;14.33;;;2.00;;
41721;SDS011;27407;24.142;-110.310;2023-03-04T04:30:22;21.20;;;2.27;;
41721;SDS011;27407;24.142;-110.310;2023-03-04T04:32:49;27.73;;;2.10;;
41721;SDS011;27407;24.142;-110.310;2023-03-04T04:35:15;10.37;;;1.37;;
41721;SDS011;27407;24.142;-110.310;2023-03-04T04:37:42;27.20;;;1.83;;
41721;SDS011;27407;24.142;-110.310;2023-03-04T04:40:09;20.03;;;1.97;;
41721;SDS011;27407;24.142;-110.310;2023-03-04T04:42:36;25.03;;;1.90;;
41721;SDS011;27407;24.142;-110.310;2023-03-04T04:45:03;21.33;;;2.57;;
41721;SDS011;27407;24.142;-110.310;2023-03-04T04:47:30;17.20;;;1.73;;
41721;SDS011;27407;24.142;-110.310;2023-03-04T04:49:56;26.17;;;1.93;;
41721;SDS011;27407;24.142;-110.310;2023-03-04T04:52:23;16.23;;;1.63;;
41721;SDS011;27407;24.142;-110.310;2023-03-04T04:54:50;26.00;;;2.50;;
41721;SDS011;27407;24.142;-110.310;2023-03-04T04:57:17;24.33;;;2.50;;
41721;SDS011;27407;24.142;-110.310;2023-03-04T04:59:43;20.13;;;1.93;;
41721;SDS011;27407;24.142;-110.310;2023-03-04T05:02:10;13.80;;;1.60;;
41721;SDS011;27407;24.142;-110.310;2023-03-04T05:04:37;20.27;;;1.73;;
41721;SDS011;27407;24.142;-110.310;2023-03-04T05:07:03;17.23;;;1.50;;
41721;SDS011;27407;24.142;-110.310;2023-03-04T05:09:30;14.13;;;1.50;;
41721;SDS011;27407;24.142;-110.310;2023-03-04T05:11:57;18.77;;;1.60;;
41721;SDS011;27407;24.142;-110.310;2023-03-04T05:14:23;14.97;;;1.63;;
41721;SDS011;27407;24.142;-110.310;2023-03-04T05:16:50;20.33;;;1.47;;
41721;SDS011;27407;24.142;-110.310;2023-03-04T05:19:17;5.03;;;0.90;;
41721;SDS011;27407;24.142;-110.310;2023-03-04T05:21:44;9.47;;;1.30;;
41721;SDS011;27407;24.142;-110.310;2023-03-04T05:24:11;14.90;;;1.20;;
41721;SDS011;27407;24.142;-110.310;2023-03-04T05:26:38;5.87;;;1.33;;
41721;SDS011;27407;24.142;-110.310;2023-03-04T05:29:04;5.67;;;1.70;;
41721;SDS011;27407;24.142;-110.310;2023-03-04T05:31:31;12.03;;;1.20;;
41721;SDS011;27407;24.142;-110.310;2023-03-04T05:33:58;18.07;;;1.83;;
41721;SDS011;27407;24.142;-110.310;2023-03-04T05:36:24;23.27;;;1.63;;
41721;SDS011;27407;24.142;-110.310;2023-03-04T05:38:51;12.10;;;1.63;;
41721;SDS011;27407;24.142;-110.310;2023-03-04T05:41:18;17.13;;;1.97;;
41721;SDS011;27407;24.142;-110.310;2023-03-04T05:43:48;8.23;;;1.57;;
41721;SDS011;27407;24.142;-110.310;2023-03-04T05:46:17;13.30;;;1.17;;
41721;SDS011;27407;24.142;-110.310;2023-03-04T05:48:50;21.60;;;2.20;;
41721;SDS011;27407;24.142;-110.310;2023-03-04T05:51:17;7.80;;;1.07;;
41721;SDS011;27407;24.142;-110.310;2023-03-04T05:53:44;8.93;;;1.03;;
41721;SDS011;27407;24.142;-110.310;2023-03-04T05:56:15;9.33;;;1.20;;
41721;SDS011;27407;24.142;-110.310;2023-03-04T05:58:44;21.33;;;1.93;;
41721;SDS011;27407;24.142;-110.310;2023-03-04T06:01:14;12.17;;;1.10;;
41721;SDS011;27407;24.142;-110.310;2023-03-04T06:03:41;11.13;;;1.07;;
41721;SDS011;27407;24.142;-110.310;2023-03-04T06:06:08;4.27;;;0.80;;
41721;SDS011;27407;24.142;-110.310;2023-03-04T06:08:34;5.43;;;0.80;;
41721;SDS011;27407;24.142;-110.310;2023-03-04T06:11:01;17.10;;;1.10;;
41721;SDS011;27407;24.142;-110.310;2023-03-04T06:13:29;16.93;;;1.47;;
41721;SDS011;27407;24.142;-110.310;2023-03-04T06:15:56;31.50;;;1.60;;
41721;SDS011;27407;24.142;-110.310;2023-03-04T06:18:25;10.93;;;1.20;;
41721;SDS011;27407;24.142;-110.310;2023-03-04T06:20:56;27.10;;;2.03;;
41721;SDS011;27407;24.142;-110.310;2023-03-04T06:23:24;11.67;;;1.00;;
41721;SDS011;27407;24.142;-110.310;2023-03-04T06:25:52;13.53;;;1.50;;
41721;SDS011;27407;24.142;-110.310;2023-03-04T06:28:19;13.53;;;1.60;;
41721;SDS011;27407;24.142;-110.310;2023-03-04T06:30:46;17.70;;;1.80;;
41721;SDS011;27407;24.142;-110.310;2023-03-04T06:33:13;29.23;;;3.33;;
41721;SDS011;27407;24.142;-110.310;2023-03-04T06:35:39;16.17;;;2.40;;
41721;SDS011;27407;24.142;-110.310;2023-03-04T06:38:06;10.73;;;2.10;;
41721;SDS011;27407;24.142;-110.310;2023-03-04T06:40:32;16.87;;;2.20;;
41721;SDS011;27407;24.142;-110.310;2023-03-04T06:42:59;7.30;;;1.50;;
41721;SDS011;27407;24.142;-110.310;2023-03-04T06:45:26;11.47;;;1.00;;
41721;SDS011;27407;24.142;-110.310;2023-03-04T06:47:53;10.93;;;0.97;;
41721;SDS011;27407;24.142;-110.310;2023-03-04T06:50:19;6.70;;;0.90;;
41721;SDS011;27407;24.142;-110.310;2023-03-04T06:52:46;6.57;;;0.70;;
41721;SDS011;27407;24.142;-110.310;2023-03-04T06:55:13;10.40;;;0.90;;
41721;SDS011;27407;24.142;-110.310;2023-03-04T06:57:40;7.67;;;1.20;;
41721;SDS011;27407;24.142;-110.310;2023-03-04T07:00:07;6.47;;;1.13;;
41721;SDS011;27407;24.142;-110.310;2023-03-04T07:02:34;21.40;;;1.80;;
41721;SDS011;27407;24.142;-110.310;2023-03-04T07:05:01;15.17;;;1.43;;
41721;SDS011;27407;24.142;-110.310;2023-03-04T07:07:27;37.47;;;2.77;;
41721;SDS011;27407;24.142;-110.310;2023-03-04T07:09:54;13.73;;;1.70;;
41721;SDS011;27407;24.142;-110.310;2023-03-04T07:12:21;8.73;;;1.33;;
41721;SDS011;27407;24.142;-110.310;2023-03-04T07:14:47;12.90;;;2.23;;
41721;SDS011;27407;24.142;-110.310;2023-03-04T07:17:14;19.73;;;3.20;;
41721;SDS011;27407;24.142;-110.310;2023-03-04T07:19:41;15.60;;;2.80;;
41721;SDS011;27407;24.142;-110.310;2023-03-04T07:22:09;17.37;;;2.43;;
41721;SDS011;27407;24.142;-110.310;2023-03-04T07:24:36;8.77;;;0.97;;
41721;SDS011;27407;24.142;-110.310;2023-03-04T07:27:02;2.97;;;0.67;;
41721;SDS011;27407;24.142;-110.310;2023-03-04T07:29:29;4.47;;;0.80;;
41721;SDS011;27407;24.142;-110.310;2023-03-04T07:31:56;6.63;;;1.00;;
41721;SDS011;27407;24.142;-110.310;2023-03-04T07:34:22;5.77;;;0.80;;
41721;SDS011;27407;24.142;-110.310;2023-03-04T07:36:49;5.40;;;0.87;;
41721;SDS011;27407;24.142;-110.310;2023-03-04T07:39:16;3.20;;;1.07;;
41721;SDS011;27407;24.142;-110.310;2023-03-04T07:41:42;2.83;;;1.03;;
41721;SDS011;27407;24.142;-110.310;2023-03-04T07:44:10;11.07;;;1.23;;
41721;SDS011;27407;24.142;-110.310;2023-03-04T07:46:37;11.00;;;0.93;;
41721;SDS011;27407;24.142;-110.310;2023-03-04T07:49:04;2.77;;;0.70;;
41721;SDS011;27407;24.142;-110.310;2023-03-04T07:51:31;2.70;;;0.77;;
41721;SDS011;27407;24.142;-110.310;2023-03-04T07:53:59;3.50;;;1.00;;
41721;SDS011;27407;24.142;-110.310;2023-03-04T07:56:27;10.43;;;1.10;;
41721;SDS011;27407;24.142;-110.310;2023-03-04T07:58:56;5.67;;;1.17;;
41721;SDS011;27407;24.142;-110.310;2023-03-04T08:01:24;2.63;;;1.20;;
41721;SDS011;27407;24.142;-110.310;2023-03-04T08:03:56;4.40;;;0.90;;
41721;SDS011;27407;24.142;-110.310;2023-03-04T08:06:23;5.07;;;0.90;;
41721;SDS011;27407;24.142;-110.310;2023-03-04T08:08:55;5.00;;;0.67;;
41721;SDS011;27407;24.142;-110.310;2023-03-04T08:11:23;3.63;;;0.60;;
41721;SDS011;27407;24.142;-110.310;2023-03-04T08:13:49;4.47;;;1.10;;
41721;SDS011;27407;24.142;-110.310;2023-03-04T08:16:19;9.13;;;1.57;;
41721;SDS011;27407;24.142;-110.310;2023-03-04T08:18:48;6.10;;;0.80;;
41721;SDS011;27407;24.142;-110.310;2023-03-04T08:21:17;6.80;;;0.70;;
41721;SDS011;27407;24.142;-110.310;2023-03-04T08:23:46;6.17;;;0.80;;
41721;SDS011;27407;24.142;-110.310;2023-03-04T08:26:23;4.23;;;0.50;;
41721;SDS011;27407;24.142;-110.310;2023-03-04T08:28:52;8.23;;;0.73;;
41721;SDS011;27407;24.142;-110.310;2023-03-04T08:31:20;8.60;;;1.00;;
41721;SDS011;27407;24.142;-110.310;2023-03-04T08:33:47;2.33;;;0.60;;
41721;SDS011;27407;24.142;-110.310;2023-03-04T08:36:15;3.13;;;0.60;;
41721;SDS011;27407;24.142;-110.310;2023-03-04T08:38:42;10.77;;;0.80;;
41721;SDS011;27407;24.142;-110.310;2023-03-04T08:41:08;7.30;;;0.77;;
41721;SDS011;27407;24.142;-110.310;2023-03-04T08:43:35;4.07;;;0.60;;
41721;SDS011;27407;24.142;-110.310;2023-03-04T08:46:02;4.33;;;0.63;;
41721;SDS011;27407;24.142;-110.310;2023-03-04T08:48:29;3.17;;;0.90;;
41721;SDS011;27407;24.142;-110.310;2023-03-04T08:50:56;6.53;;;2.07;;
41721;SDS011;27407;24.142;-110.310;2023-03-04T08:53:23;3.80;;;0.77;;
41721;SDS011;27407;24.142;-110.310;2023-03-04T08:55:50;6.27;;;0.80;;
41721;SDS011;27407;24.142;-110.310;2023-03-04T08:58:17;4.30;;;0.70;;
41721;SDS011;27407;24.142;-110.310;2023-03-04T09:00:45;5.13;;;1.17;;
41721;SDS011;27407;24.142;-110.310;2023-03-04T09:03:14;7.47;;;0.60;;
41721;SDS011;27407;24.142;-110.310;2023-03-04T09:05:43;5.00;;;0.97;;
41721;SDS011;27407;24.142;-110.310;2023-03-04T09:08:11;2.90;;;0.93;;
41721;SDS011;27407;24.142;-110.310;2023-03-04T09:10:38;7.20;;;0.53;;
41721;SDS011;27407;24.142;-110.310;2023-03-04T09:13:05;5.30;;;0.67;;
41721;SDS011;27407;24.142;-110.310;2023-03-04T09:15:32;5.93;;;0.57;;
41721;SDS011;27407;24.142;-110.310;2023-03-04T09:18:00;3.97;;;0.40;;
41721;SDS011;27407;24.142;-110.310;2023-03-04T09:20:28;2.13;;;0.50;;
41721;SDS011;27407;24.142;-110.310;2023-03-04T09:22:55;4.93;;;0.70;;
41721;SDS011;27407;24.142;-110.310;2023-03-04T09:25:22;4.67;;;0.50;;
41721;SDS011;27407;24.142;-110.310;2023-03-04T09:27:49;2.27;;;0.40;;
41721;SDS011;27407;24.142;-110.310;2023-03-04T09:30:15;1.90;;;0.40;;
41721;SDS011;27407;24.142;-110.310;2023-03-04T09:32:42;11.00;;;1.00;;
41721;SDS011;27407;24.142;-110.310;2023-03-04T09:35:09;1.80;;;0.47;;
41721;SDS011;27407;24.142;-110.310;2023-03-04T09:37:35;2.60;;;0.53;;
41721;SDS011;27407;24.142;-110.310;2023-03-04T09:40:03;7.13;;;0.60;;
41721;SDS011;27407;24.142;-110.310;2023-03-04T09:42:34;2.87;;;0.43;;
41721;SDS011;27407;24.142;-110.310;2023-03-04T09:45:09;7.33;;;0.70;;
41721;SDS011;27407;24.142;-110.310;2023-03-04T09:47:40;5.47;;;0.50;;
41721;SDS011;27407;24.142;-110.310;2023-03-04T09:50:09;8.00;;;0.73;;
41721;SDS011;27407;24.142;-110.310;2023-03-04T09:55:22;4.23;;;0.70;;
41721;SDS011;27407;24.142;-110.310;2023-03-04T10:00:39;7.33;;;0.60;;
41721;SDS011;27407;24.142;-110.310;2023-03-04T10:05:39;5.07;;;0.50;;
41721;SDS011;27407;24.142;-110.310;2023-03-04T10:08:19;10.60;;;0.73;;
41721;SDS011;27407;24.142;-110.310;2023-03-04T10:10:57;4.93;;;0.50;;
41721;SDS011;27407;24.142;-110.310;2023-03-04T10:16:33;6.13;;;0.40;;
41721;SDS011;27407;24.142;-110.310;2023-03-04T10:21:47;3.03;;;0.60;;
41721;SDS011;27407;24.142;-110.310;2023-03-04T10:24:16;5.77;;;0.93;;
41721;SDS011;27407;24.142;-110.310;2023-03-04T10:27:09;3.90;;;0.30;;
41721;SDS011;27407;24.142;-110.310;2023-03-04T10:29:36;9.47;;;0.87;;
41721;SDS011;27407;24.142;-110.310;2023-03-04T10:32:03;1.03;;;0.37;;
41721;SDS011;27407;24.142;-110.310;2023-03-04T10:34:32;5.70;;;0.50;;
41721;SDS011;27407;24.142;-110.310;2023-03-04T10:37:03;1.50;;;0.30;;
41721;SDS011;27407;24.142;-110.310;2023-03-04T10:39:35;3.60;;;0.40;;
41721;SDS011;27407;24.142;-110.310;2023-03-04T10:44:36;2.30;;;0.30;;
41721;SDS011;27407;24.142;-110.310;2023-03-04T10:47:09;4.33;;;0.50;;
41721;SDS011;27407;24.142;-110.310;2023-03-04T10:49:48;5.20;;;0.30;;
41721;SDS011;27407;24.142;-110.310;2023-03-04T10:52:27;3.53;;;0.37;;
41721;SDS011;27407;24.142;-110.310;2023-03-04T10:55:02;1.37;;;0.23;;
41721;SDS011;27407;24.142;-110.310;2023-03-04T10:57:35;4.80;;;0.60;;
41721;SDS011;27407;24.142;-110.310;2023-03-04T11:02:44;4.10;;;0.80;;
41721;SDS011;27407;24.142;-110.310;2023-03-04T11:05:16;20.53;;;1.20;;
41721;SDS011;27407;24.142;-110.310;2023-03-04T11:15:26;14.63;;;1.10;;
41721;SDS011;27407;24.142;-110.310;2023-03-04T11:17:59;6.07;;;0.90;;
41721;SDS011;27407;24.142;-110.310;2023-03-04T11:20:31;5.50;;;0.90;;
41721;SDS011;27407;24.142;-110.310;2023-03-04T11:23:03;16.00;;;1.30;;
41721;SDS011;27407;24.142;-110.310;2023-03-04T11:25:37;9.30;;;0.67;;
41721;SDS011;27407;24.142;-110.310;2023-03-04T11:30:43;4.63;;;0.70;;
41721;SDS011;27407;24.142;-110.310;2023-03-04T11:33:17;6.83;;;0.90;;
41721;SDS011;27407;24.142;-110.310;2023-03-04T11:39:00;4.13;;;0.50;;
41721;SDS011;27407;24.142;-110.310;2023-03-04T11:41:39;3.40;;;0.60;;
41721;SDS011;27407;24.142;-110.310;2023-03-04T11:44:14;5.03;;;0.70;;
41721;SDS011;27407;24.142;-110.310;2023-03-04T11:49:39;8.73;;;0.60;;
41721;SDS011;27407;24.142;-110.310;2023-03-04T11:55:11;4.83;;;0.57;;
41721;SDS011;27407;24.142;-110.310;2023-03-04T12:03:26;4.07;;;0.50;;
41721;SDS011;27407;24.142;-110.310;2023-03-04T12:12:38;3.57;;;0.50;;
41721;SDS011;27407;24.142;-110.310;2023-03-04T12:17:53;20.90;;;1.00;;
41721;SDS011;27407;24.142;-110.310;2023-03-04T12:20:57;5.73;;;0.67;;
41721;SDS011;27407;24.142;-110.310;2023-03-04T12:23:51;4.37;;;0.60;;
41721;SDS011;27407;24.142;-110.310;2023-03-04T12:31:57;13.83;;;2.17;;
41721;SDS011;27407;24.142;-110.310;2023-03-04T12:43:18;19.93;;;2.17;;
41721;SDS011;27407;24.142;-110.310;2023-03-04T12:48:40;9.97;;;1.70;;
41721;SDS011;27407;24.142;-110.310;2023-03-04T12:56:42;19.60;;;3.37;;
41721;SDS011;27407;24.142;-110.310;2023-03-04T12:59:31;146.13;;;10.40;;
41721;SDS011;27407;24.142;-110.310;2023-03-04T13:10:25;29.47;;;2.67;;
41721;SDS011;27407;24.142;-110.310;2023-03-04T13:12:55;19.57;;;3.00;;
41721;SDS011;27407;24.142;-110.310;2023-03-04T13:17:51;35.50;;;3.40;;
41721;SDS011;27407;24.142;-110.310;2023-03-04T13:23:02;35.97;;;3.67;;
41721;SDS011;27407;24.142;-110.310;2023-03-04T13:25:47;40.53;;;4.23;;
41721;SDS011;27407;24.142;-110.310;2023-03-04T13:31:05;22.93;;;3.40;;
41721;SDS011;27407;24.142;-110.310;2023-03-04T13:36:04;44.97;;;3.33;;
41721;SDS011;27407;24.142;-110.310;2023-03-04T13:38:56;42.33;;;3.30;;
41721;SDS011;27407;24.142;-110.310;2023-03-04T13:41:29;46.87;;;4.10;;
41721;SDS011;27407;24.142;-110.310;2023-03-04T13:44:33;57.37;;;5.67;;
41721;SDS011;27407;24.142;-110.310;2023-03-04T13:47:07;43.33;;;4.90;;
41721;SDS011;27407;24.142;-110.310;2023-03-04T13:49:40;135.27;;;9.87;;
41721;SDS011;27407;24.142;-110.310;2023-03-04T13:58:09;42.87;;;4.33;;
41721;SDS011;27407;24.142;-110.310;2023-03-04T14:00:46;37.47;;;4.40;;
41721;SDS011;27407;24.142;-110.310;2023-03-04T14:03:19;39.00;;;3.50;;
41721;SDS011;27407;24.142;-110.310;2023-03-04T14:08:50;64.87;;;3.73;;
41721;SDS011;27407;24.142;-110.310;2023-03-04T14:13:44;36.27;;;3.20;;
41721;SDS011;27407;24.142;-110.310;2023-03-04T14:16:11;36.40;;;3.37;;
41721;SDS011;27407;24.142;-110.310;2023-03-04T14:19:24;34.73;;;4.27;;
41721;SDS011;27407;24.142;-110.310;2023-03-04T14:21:54;25.83;;;2.50;;
41721;SDS011;27407;24.142;-110.310;2023-03-04T14:24:22;39.40;;;3.80;;
41721;SDS011;27407;24.142;-110.310;2023-03-04T14:27:03;37.50;;;5.23;;
41721;SDS011;27407;24.142;-110.310;2023-03-04T14:29:36;16.80;;;2.57;;
41721;SDS011;27407;24.142;-110.310;2023-03-04T14:32:03;30.67;;;3.10;;
41721;SDS011;27407;24.142;-110.310;2023-03-04T14:34:31;26.57;;;2.87;;
41721;SDS011;27407;24.142;-110.310;2023-03-04T14:37:01;22.77;;;2.20;;
41721;SDS011;27407;24.142;-110.310;2023-03-04T14:39:40;42.70;;;2.87;;
41721;SDS011;27407;24.142;-110.310;2023-03-04T14:42:09;45.47;;;3.60;;
41721;SDS011;27407;24.142;-110.310;2023-03-04T14:44:42;28.67;;;3.60;;
41721;SDS011;27407;24.142;-110.310;2023-03-04T14:50:06;77.70;;;5.97;;
41721;SDS011;27407;24.142;-110.310;2023-03-04T14:52:39;43.27;;;3.23;;
41721;SDS011;27407;24.142;-110.310;2023-03-04T14:57:35;49.93;;;4.53;;
41721;SDS011;27407;24.142;-110.310;2023-03-04T15:00:15;79.07;;;5.67;;
41721;SDS011;27407;24.142;-110.310;2023-03-04T15:02:51;69.33;;;5.00;;
41721;SDS011;27407;24.142;-110.310;2023-03-04T15:05:22;32.07;;;2.47;;
41721;SDS011;27407;24.142;-110.310;2023-03-04T15:08:00;26.63;;;2.80;;
41721;SDS011;27407;24.142;-110.310;2023-03-04T15:10:52;42.63;;;4.40;;
41721;SDS011;27407;24.142;-110.310;2023-03-04T15:13:39;28.07;;;2.90;;
41721;SDS011;27407;24.142;-110.310;2023-03-04T15:16:07;89.97;;;6.40;;
41721;SDS011;27407;24.142;-110.310;2023-03-04T15:18:36;43.77;;;4.50;;
41721;SDS011;27407;24.142;-110.310;2023-03-04T15:21:03;106.50;;;7.47;;
41721;SDS011;27407;24.142;-110.310;2023-03-04T15:23:50;133.30;;;8.03;;
41721;SDS011;27407;24.142;-110.310;2023-03-04T15:26:17;82.13;;;6.23;;
41721;SDS011;27407;24.142;-110.310;2023-03-04T15:28:43;62.70;;;7.57;;
41721;SDS011;27407;24.142;-110.310;2023-03-04T15:31:17;192.93;;;13.33;;
41721;SDS011;27407;24.142;-110.310;2023-03-04T15:33:45;48.57;;;4.23;;
41721;SDS011;27407;24.142;-110.310;2023-03-04T15:36:15;40.63;;;3.77;;
41721;SDS011;27407;24.142;-110.310;2023-03-04T15:38:50;56.70;;;5.80;;
41721;SDS011;27407;24.142;-110.310;2023-03-04T15:41:24;225.00;;;17.63;;
41721;SDS011;27407;24.142;-110.310;2023-03-04T15:43:52;124.87;;;9.60;;
41721;SDS011;27407;24.142;-110.310;2023-03-04T15:46:19;63.23;;;5.47;;
41721;SDS011;27407;24.142;-110.310;2023-03-04T15:48:46;72.40;;;8.00;;
41721;SDS011;27407;24.142;-110.310;2023-03-04T15:51:17;73.17;;;7.67;;
41721;SDS011;27407;24.142;-110.310;2023-03-04T15:53:47;61.27;;;6.70;;
41721;SDS011;27407;24.142;-110.310;2023-03-04T15:56:23;188.07;;;17.93;;
41721;SDS011;27407;24.142;-110.310;2023-03-04T15:58:56;87.43;;;8.20;;
41721;SDS011;27407;24.142;-110.310;2023-03-04T16:01:25;54.07;;;6.13;;
41721;SDS011;27407;24.142;-110.310;2023-03-04T16:03:52;32.50;;;5.50;;
41721;SDS011;27407;24.142;-110.310;2023-03-04T16:06:19;70.83;;;7.63;;
41721;SDS011;27407;24.142;-110.310;2023-03-04T16:08:48;55.93;;;9.13;;
41721;SDS011;27407;24.142;-110.310;2023-03-04T16:11:17;49.93;;;6.03;;